sensor_id;sensor_type;location;lat;lon;timestamp;pressure;altitude;pressure_sealevel;temperature;humidity
30343;BME280;17145;49.902;8.680;'2023-01-05 00:58:41';100240;;;9;67
30343;BME280;17145;49.902;8.680;'2023-01-05 01:01:11';100230;;;9;66
30343;BME280;17145;49.902;8.680;'2023-01-05 01:03:39';100240;;;9;67
30343;BME280;17145;49.902;8.680;'2023-01-05 01:06:10';100230;;;9;66
30343;BME280;17145;49.902;8.680;'2023-01-05 01:08:38';100240;;;9;67
30343;BME280;17145;49.902;8.680;'2023-01-05 01:11:06';100240;;;9;67
30343;BME280;17145;49.902;8.680;'2023-01-05 01:13:34';100240;;;9;67
30343;BME280;17145;49.902;8.680;'2023-01-05 01:16:01';100230;;;9;66
30343;BME280;17145;49.902;8.680;'2023-01-05 01:18:29';100220;;;9;66
30343;BME280;17145;49.902;8.680;'2023-01-05 01:20:56';100220;;;9;66
30343;BME280;17145;49.902;8.680;'2023-01-05 01:23:23';100230;;;9;66
30343;BME280;17145;49.902;8.680;'2023-01-05 01:25:51';100250;;;9;68
30343;BME280;17145;49.902;8.680;'2023-01-05 01:28:18';100240;;;8;69
30343;BME280;17145;49.902;8.680;'2023-01-05 01:30:46';100230;;;9;69
30343;BME280;17145;49.902;8.680;'2023-01-05 01:33:16';100240;;;9;69
30343;BME280;17145;49.902;8.680;'2023-01-05 01:35:44';100220;;;9;68
30343;BME280;17145;49.902;8.680;'2023-01-05 01:38:11';100220;;;9;67
30343;BME280;17145;49.902;8.680;'2023-01-05 01:40:39';100230;;;9;67
30343;BME280;17145;49.902;8.680;'2023-01-05 01:43:06';100220;;;9;68
30343;BME280;17145;49.902;8.680;'2023-01-05 01:45:33';100210;;;9;67
30343;BME280;17145;49.902;8.680;'2023-01-05 01:48:01';100210;;;9;67
30343;BME280;17145;49.902;8.680;'2023-01-05 01:50:28';100220;;;8;69
30343;BME280;17145;49.902;8.680;'2023-01-05 01:52:55';100210;;;9;67
30343;BME280;17145;49.902;8.680;'2023-01-05 01:55:23';100210;;;9;67
30343;BME280;17145;49.902;8.680;'2023-01-05 01:57:50';100210;;;9;67
30343;BME280;17145;49.902;8.680;'2023-01-05 02:00:18';100200;;;9;67
30343;BME280;17145;49.902;8.680;'2023-01-05 02:02:46';100200;;;9;68
30343;BME280;17145;49.902;8.680;'2023-01-05 02:05:13';100190;;;9;67
30343;BME280;17145;49.902;8.680;'2023-01-05 02:07:41';100210;;;9;68
30343;BME280;17145;49.902;8.680;'2023-01-05 02:10:10';100200;;;9;67
30343;BME280;17145;49.902;8.680;'2023-01-05 02:12:37';100210;;;9;69
30343;BME280;17145;49.902;8.680;'2023-01-05 02:15:07';100210;;;9;68
30343;BME280;17145;49.902;8.680;'2023-01-05 02:17:34';100220;;;9;69
30343;BME280;17145;49.902;8.680;'2023-01-05 02:20:02';100230;;;9;69
30343;BME280;17145;49.902;8.680;'2023-01-05 02:22:29';100230;;;9;69
30343;BME280;17145;49.902;8.680;'2023-01-05 02:24:57';100230;;;9;69
30343;BME280;17145;49.902;8.680;'2023-01-05 02:27:24';100240;;;9;69
30343;BME280;17145;49.902;8.680;'2023-01-05 02:29:51';100240;;;9;70
30343;BME280;17145;49.902;8.680;'2023-01-05 02:32:19';100240;;;9;69
30343;BME280;17145;49.902;8.680;'2023-01-05 02:34:46';100250;;;9;69
30343;BME280;17145;49.902;8.680;'2023-01-05 02:37:15';100260;;;9;69
30343;BME280;17145;49.902;8.680;'2023-01-05 02:39:42';100260;;;8;72
30343;BME280;17145;49.902;8.680;'2023-01-05 02:42:12';100260;;;9;70
30343;BME280;17145;49.902;8.680;'2023-01-05 02:44:52';100250;;;9;71
30343;BME280;17145;49.902;8.680;'2023-01-05 02:47:29';100260;;;9;70
30343;BME280;17145;49.902;8.680;'2023-01-05 02:49:58';100260;;;9;69
30343;BME280;17145;49.902;8.680;'2023-01-05 02:52:28';100270;;;9;70
30343;BME280;17145;49.902;8.680;'2023-01-05 02:54:56';100260;;;9;71
30343;BME280;17145;49.902;8.680;'2023-01-05 02:57:27';100260;;;9;70
30343;BME280;17145;49.902;8.680;'2023-01-05 02:59:58';100260;;;9;70
30343;BME280;17145;49.902;8.680;'2023-01-05 03:02:26';100250;;;9;71
30343;BME280;17145;49.902;8.680;'2023-01-05 03:04:58';100250;;;9;70
30343;BME280;17145;49.902;8.680;'2023-01-05 03:07:31';100240;;;10;69
30343;BME280;17145;49.902;8.680;'2023-01-05 03:09:59';100250;;;9;69
30343;BME280;17145;49.902;8.680;'2023-01-05 03:12:37';100250;;;10;68
30343;BME280;17145;49.902;8.680;'2023-01-05 03:15:18';100240;;;9;70
30343;BME280;17145;49.902;8.680;'2023-01-05 03:17:59';100250;;;9;71
30343;BME280;17145;49.902;8.680;'2023-01-05 03:26:04';100230;;;9;69
30343;BME280;17145;49.902;8.680;'2023-01-05 03:28:47';100240;;;9;69
30343;BME280;17145;49.902;8.680;'2023-01-05 03:31:17';100230;;;9;69
30343;BME280;17145;49.902;8.680;'2023-01-05 03:33:58';100230;;;10;68
30343;BME280;17145;49.902;8.680;'2023-01-05 03:36:30';100230;;;9;68
30343;BME280;17145;49.902;8.680;'2023-01-05 03:39:03';100230;;;9;68
30343;BME280;17145;49.902;8.680;'2023-01-05 03:41:37';100240;;;9;68
30343;BME280;17145;49.902;8.680;'2023-01-05 03:44:07';100240;;;10;68
30343;BME280;17145;49.902;8.680;'2023-01-05 03:46:34';100240;;;9;68
30343;BME280;17145;49.902;8.680;'2023-01-05 03:49:03';100240;;;10;68
30343;BME280;17145;49.902;8.680;'2023-01-05 03:51:35';100250;;;10;67
30343;BME280;17145;49.902;8.680;'2023-01-05 03:54:07';100240;;;10;67
30343;BME280;17145;49.902;8.680;'2023-01-05 03:56:40';100240;;;10;67
30343;BME280;17145;49.902;8.680;'2023-01-05 03:59:13';100240;;;10;67
30343;BME280;17145;49.902;8.680;'2023-01-05 04:01:46';100240;;;10;66
30343;BME280;17145;49.902;8.680;'2023-01-05 04:04:20';100240;;;10;67
30343;BME280;17145;49.902;8.680;'2023-01-05 04:06:53';100260;;;9;68
30343;BME280;17145;49.902;8.680;'2023-01-05 04:09:22';100260;;;9;67
30343;BME280;17145;49.902;8.680;'2023-01-05 04:11:57';100260;;;9;67
30343;BME280;17145;49.902;8.680;'2023-01-05 04:14:31';100260;;;9;67
30343;BME280;17145;49.902;8.680;'2023-01-05 04:17:03';100260;;;9;65
30343;BME280;17145;49.902;8.680;'2023-01-05 04:19:31';100270;;;9;66
30343;BME280;17145;49.902;8.680;'2023-01-05 04:22:02';100270;;;9;64
30343;BME280;17145;49.902;8.680;'2023-01-05 04:24:31';100280;;;9;64
30343;BME280;17145;49.902;8.680;'2023-01-05 04:26:59';100280;;;9;64
30343;BME280;17145;49.902;8.680;'2023-01-05 04:29:27';100280;;;9;63
30343;BME280;17145;49.902;8.680;'2023-01-05 04:32:00';100280;;;9;63
30343;BME280;17145;49.902;8.680;'2023-01-05 04:34:37';100280;;;10;62
30343;BME280;17145;49.902;8.680;'2023-01-05 04:37:11';100280;;;9;63
30343;BME280;17145;49.902;8.680;'2023-01-05 04:39:43';100280;;;9;63
30343;BME280;17145;49.902;8.680;'2023-01-05 04:42:12';100290;;;9;63
30343;BME280;17145;49.902;8.680;'2023-01-05 04:44:48';100290;;;9;62
30343;BME280;17145;49.902;8.680;'2023-01-05 04:47:15';100290;;;9;63
30343;BME280;17145;49.902;8.680;'2023-01-05 04:49:42';100310;;;9;62
30343;BME280;17145;49.902;8.680;'2023-01-05 04:52:10';100320;;;9;62
30343;BME280;17145;49.902;8.680;'2023-01-05 04:54:37';100310;;;9;62
30343;BME280;17145;49.902;8.680;'2023-01-05 04:57:05';100320;;;9;62
30343;BME280;17145;49.902;8.680;'2023-01-05 04:59:32';100330;;;9;61
30343;BME280;17145;49.902;8.680;'2023-01-05 05:02:00';100330;;;9;61
30343;BME280;17145;49.902;8.680;'2023-01-05 05:04:27';100340;;;9;60
30343;BME280;17145;49.902;8.680;'2023-01-05 05:06:54';100340;;;9;60
30343;BME280;17145;49.902;8.680;'2023-01-05 05:09:22';100360;;;9;59
30343;BME280;17145;49.902;8.680;'2023-01-05 05:11:50';100360;;;9;58
30343;BME280;17145;49.902;8.680;'2023-01-05 05:14:17';100360;;;9;57
30343;BME280;17145;49.902;8.680;'2023-01-05 05:16:44';100360;;;8;57
30343;BME280;17145;49.902;8.680;'2023-01-05 05:19:12';100360;;;9;57
30343;BME280;17145;49.902;8.680;'2023-01-05 05:21:39';100350;;;9;56
30343;BME280;17145;49.902;8.680;'2023-01-05 05:24:09';100350;;;9;56
30343;BME280;17145;49.902;8.680;'2023-01-05 05:26:36';100350;;;9;56
30343;BME280;17145;49.902;8.680;'2023-01-05 05:29:04';100360;;;9;55
30343;BME280;17145;49.902;8.680;'2023-01-05 05:31:31';100350;;;9;55
30343;BME280;17145;49.902;8.680;'2023-01-05 05:33:58';100350;;;9;55
30343;BME280;17145;49.902;8.680;'2023-01-05 05:36:26';100360;;;9;55
30343;BME280;17145;49.902;8.680;'2023-01-05 05:38:53';100360;;;8;54
30343;BME280;17145;49.902;8.680;'2023-01-05 05:41:21';100360;;;8;55
30343;BME280;17145;49.902;8.680;'2023-01-05 05:43:48';100360;;;9;54
30343;BME280;17145;49.902;8.680;'2023-01-05 05:46:15';100370;;;8;54
30343;BME280;17145;49.902;8.680;'2023-01-05 05:48:43';100360;;;9;54
30343;BME280;17145;49.902;8.680;'2023-01-05 05:51:10';100360;;;9;54
30343;BME280;17145;49.902;8.680;'2023-01-05 05:53:38';100370;;;9;53
30343;BME280;17145;49.902;8.680;'2023-01-05 05:56:06';100370;;;9;53
30343;BME280;17145;49.902;8.680;'2023-01-05 05:58:33';100360;;;8;53
30343;BME280;17145;49.902;8.680;'2023-01-05 06:01:00';100370;;;9;53
30343;BME280;17145;49.902;8.680;'2023-01-05 06:03:28';100370;;;8;53
30343;BME280;17145;49.902;8.680;'2023-01-05 06:05:55';100370;;;8;55
30343;BME280;17145;49.902;8.680;'2023-01-05 06:08:23';100380;;;9;54
30343;BME280;17145;49.902;8.680;'2023-01-05 06:10:50';100380;;;9;53
30343;BME280;17145;49.902;8.680;'2023-01-05 06:13:18';100380;;;9;53
30343;BME280;17145;49.902;8.680;'2023-01-05 06:15:45';100390;;;8;54
30343;BME280;17145;49.902;8.680;'2023-01-05 06:18:12';100390;;;8;55
30343;BME280;17145;49.902;8.680;'2023-01-05 06:20:43';100400;;;9;54
30343;BME280;17145;49.902;8.680;'2023-01-05 06:23:10';100390;;;9;54
30343;BME280;17145;49.902;8.680;'2023-01-05 06:25:38';100400;;;9;53
30343;BME280;17145;49.902;8.680;'2023-01-05 06:28:05';100400;;;9;54
30343;BME280;17145;49.902;8.680;'2023-01-05 06:30:32';100410;;;9;54
30343;BME280;17145;49.902;8.680;'2023-01-05 06:33:00';100410;;;9;54
30343;BME280;17145;49.902;8.680;'2023-01-05 06:35:27';100420;;;8;54
30343;BME280;17145;49.902;8.680;'2023-01-05 06:37:54';100410;;;9;54
30343;BME280;17145;49.902;8.680;'2023-01-05 06:40:22';100410;;;9;53
30343;BME280;17145;49.902;8.680;'2023-01-05 06:42:49';100410;;;9;53
30343;BME280;17145;49.902;8.680;'2023-01-05 06:45:17';100410;;;9;54
30343;BME280;17145;49.902;8.680;'2023-01-05 06:47:44';100410;;;8;55
30343;BME280;17145;49.902;8.680;'2023-01-05 06:50:12';100410;;;9;54
30343;BME280;17145;49.902;8.680;'2023-01-05 06:52:39';100410;;;9;54
30343;BME280;17145;49.902;8.680;'2023-01-05 06:55:08';100410;;;9;53
30343;BME280;17145;49.902;8.680;'2023-01-05 06:57:35';100420;;;8;54
30343;BME280;17145;49.902;8.680;'2023-01-05 07:00:03';100420;;;8;55
30343;BME280;17145;49.902;8.680;'2023-01-05 07:02:31';100420;;;9;54
30343;BME280;17145;49.902;8.680;'2023-01-05 07:04:58';100420;;;9;54
30343;BME280;17145;49.902;8.680;'2023-01-05 07:07:26';100420;;;8;55
30343;BME280;17145;49.902;8.680;'2023-01-05 07:09:53';100420;;;8;55
30343;BME280;17145;49.902;8.680;'2023-01-05 07:12:20';100420;;;9;54
30343;BME280;17145;49.902;8.680;'2023-01-05 07:14:48';100420;;;9;54
30343;BME280;17145;49.902;8.680;'2023-01-05 07:17:15';100430;;;9;53
30343;BME280;17145;49.902;8.680;'2023-01-05 07:19:43';100420;;;9;53
30343;BME280;17145;49.902;8.680;'2023-01-05 07:22:10';100430;;;9;54
30343;BME280;17145;49.902;8.680;'2023-01-05 07:24:38';100440;;;8;55
30343;BME280;17145;49.902;8.680;'2023-01-05 07:27:05';100430;;;9;54
30343;BME280;17145;49.902;8.680;'2023-01-05 07:29:33';100440;;;9;53
30343;BME280;17145;49.902;8.680;'2023-01-05 07:32:00';100430;;;9;53
30343;BME280;17145;49.902;8.680;'2023-01-05 07:34:28';100430;;;9;53
30343;BME280;17145;49.902;8.680;'2023-01-05 07:36:55';100450;;;9;53
30343;BME280;17145;49.902;8.680;'2023-01-05 07:39:22';100450;;;9;54
30343;BME280;17145;49.902;8.680;'2023-01-05 07:41:50';100450;;;9;54
30343;BME280;17145;49.902;8.680;'2023-01-05 07:44:17';100450;;;9;53
30343;BME280;17145;49.902;8.680;'2023-01-05 07:46:44';100460;;;9;53
30343;BME280;17145;49.902;8.680;'2023-01-05 07:49:12';100460;;;9;53
30343;BME280;17145;49.902;8.680;'2023-01-05 07:51:39';100460;;;9;53
30343;BME280;17145;49.902;8.680;'2023-01-05 07:54:07';100480;;;8;54
30343;BME280;17145;49.902;8.680;'2023-01-05 07:56:34';100470;;;8;54
30343;BME280;17145;49.902;8.680;'2023-01-05 07:59:02';100470;;;9;54
30343;BME280;17145;49.902;8.680;'2023-01-05 08:01:29';100460;;;9;54
30343;BME280;17145;49.902;8.680;'2023-01-05 08:03:56';100460;;;9;53
30343;BME280;17145;49.902;8.680;'2023-01-05 08:06:24';100460;;;9;53
30343;BME280;17145;49.902;8.680;'2023-01-05 08:08:51';100460;;;9;53
30343;BME280;17145;49.902;8.680;'2023-01-05 08:11:18';100460;;;9;53
30343;BME280;17145;49.902;8.680;'2023-01-05 08:13:47';100460;;;9;52
30343;BME280;17145;49.902;8.680;'2023-01-05 08:16:14';100460;;;9;53
30343;BME280;17145;49.902;8.680;'2023-01-05 08:18:42';100460;;;9;53
30343;BME280;17145;49.902;8.680;'2023-01-05 08:21:09';100470;;;8;53
30343;BME280;17145;49.902;8.680;'2023-01-05 08:23:37';100470;;;9;53
30343;BME280;17145;49.902;8.680;'2023-01-05 08:26:05';100470;;;9;53
30343;BME280;17145;49.902;8.680;'2023-01-05 08:28:33';100480;;;9;53
30343;BME280;17145;49.902;8.680;'2023-01-05 08:31:01';100490;;;8;55
30343;BME280;17145;49.902;8.680;'2023-01-05 08:33:28';100500;;;8;56
30343;BME280;17145;49.902;8.680;'2023-01-05 08:35:59';100500;;;8;55
30343;BME280;17145;49.902;8.680;'2023-01-05 08:38:27';100500;;;8;56
30343;BME280;17145;49.902;8.680;'2023-01-05 08:40:57';100510;;;8;57
30343;BME280;17145;49.902;8.680;'2023-01-05 08:43:25';100500;;;8;57
30343;BME280;17145;49.902;8.680;'2023-01-05 08:45:57';100510;;;8;57
30343;BME280;17145;49.902;8.680;'2023-01-05 08:48:24';100520;;;7;59
30343;BME280;17145;49.902;8.680;'2023-01-05 08:50:52';100510;;;8;59
30343;BME280;17145;49.902;8.680;'2023-01-05 08:53:19';100520;;;8;59
30343;BME280;17145;49.902;8.680;'2023-01-05 08:55:55';100530;;;8;59
30343;BME280;17145;49.902;8.680;'2023-01-05 08:58:22';100540;;;8;60
30343;BME280;17145;49.902;8.680;'2023-01-05 09:00:49';100530;;;8;59
30343;BME280;17145;49.902;8.680;'2023-01-05 09:03:17';100550;;;8;59
30343;BME280;17145;49.902;8.680;'2023-01-05 09:05:44';100540;;;9;58
30343;BME280;17145;49.902;8.680;'2023-01-05 09:08:12';100540;;;8;59
30343;BME280;17145;49.902;8.680;'2023-01-05 09:10:41';100550;;;9;58
30343;BME280;17145;49.902;8.680;'2023-01-05 09:13:10';100550;;;9;57
30343;BME280;17145;49.902;8.680;'2023-01-05 09:15:38';100550;;;9;57
30343;BME280;17145;49.902;8.680;'2023-01-05 09:18:05';100550;;;9;57
30343;BME280;17145;49.902;8.680;'2023-01-05 09:20:33';100550;;;9;56
30343;BME280;17145;49.902;8.680;'2023-01-05 09:23:00';100560;;;9;56
30343;BME280;17145;49.902;8.680;'2023-01-05 09:25:28';100570;;;9;56
30343;BME280;17145;49.902;8.680;'2023-01-05 09:27:55';100580;;;9;56
30343;BME280;17145;49.902;8.680;'2023-01-05 09:30:22';100570;;;9;56
30343;BME280;17145;49.902;8.680;'2023-01-05 09:32:50';100570;;;9;55
30343;BME280;17145;49.902;8.680;'2023-01-05 09:35:17';100570;;;10;55
30343;BME280;17145;49.902;8.680;'2023-01-05 09:37:45';100570;;;9;55
30343;BME280;17145;49.902;8.680;'2023-01-05 09:40:12';100570;;;10;55
30343;BME280;17145;49.902;8.680;'2023-01-05 09:42:40';100560;;;10;55
30343;BME280;17145;49.902;8.680;'2023-01-05 09:45:08';100560;;;10;55
30343;BME280;17145;49.902;8.680;'2023-01-05 09:47:35';100570;;;9;55
30343;BME280;17145;49.902;8.680;'2023-01-05 09:50:03';100570;;;9;55
30343;BME280;17145;49.902;8.680;'2023-01-05 09:52:31';100570;;;10;55
30343;BME280;17145;49.902;8.680;'2023-01-05 09:54:58';100570;;;9;56
30343;BME280;17145;49.902;8.680;'2023-01-05 09:57:26';100570;;;9;56
30343;BME280;17145;49.902;8.680;'2023-01-05 09:59:53';100580;;;9;57
30343;BME280;17145;49.902;8.680;'2023-01-05 10:02:20';100570;;;9;56
30343;BME280;17145;49.902;8.680;'2023-01-05 10:04:48';100580;;;9;56
30343;BME280;17145;49.902;8.680;'2023-01-05 10:07:21';100580;;;9;56
30343;BME280;17145;49.902;8.680;'2023-01-05 10:09:48';100580;;;9;56
30343;BME280;17145;49.902;8.680;'2023-01-05 10:12:15';100580;;;9;55
30343;BME280;17145;49.902;8.680;'2023-01-05 10:14:43';100590;;;9;56
30343;BME280;17145;49.902;8.680;'2023-01-05 10:17:12';100580;;;9;56
30343;BME280;17145;49.902;8.680;'2023-01-05 10:19:40';100580;;;9;56
30343;BME280;17145;49.902;8.680;'2023-01-05 10:22:07';100590;;;9;56
30343;BME280;17145;49.902;8.680;'2023-01-05 10:24:35';100590;;;9;55
30343;BME280;17145;49.902;8.680;'2023-01-05 10:27:03';100590;;;9;55
30343;BME280;17145;49.902;8.680;'2023-01-05 10:29:32';100590;;;9;55
30343;BME280;17145;49.902;8.680;'2023-01-05 10:32:00';100580;;;9;56
30343;BME280;17145;49.902;8.680;'2023-01-05 10:34:28';100590;;;9;56
30343;BME280;17145;49.902;8.680;'2023-01-05 10:36:56';100600;;;9;56
30343;BME280;17145;49.902;8.680;'2023-01-05 10:39:23';100610;;;9;55
30343;BME280;17145;49.902;8.680;'2023-01-05 10:41:54';100630;;;9;56
30343;BME280;17145;49.902;8.680;'2023-01-05 10:44:29';100630;;;8;58
30343;BME280;17145;49.902;8.680;'2023-01-05 10:47:02';100620;;;9;57
30343;BME280;17145;49.902;8.680;'2023-01-05 10:49:31';100610;;;9;56
30343;BME280;17145;49.902;8.680;'2023-01-05 10:52:01';100620;;;9;56
30343;BME280;17145;49.902;8.680;'2023-01-05 10:54:32';100610;;;9;56
30343;BME280;17145;49.902;8.680;'2023-01-05 10:57:00';100620;;;9;56
30343;BME280;17145;49.902;8.680;'2023-01-05 10:59:31';100620;;;9;56
30343;BME280;17145;49.902;8.680;'2023-01-05 11:02:03';100620;;;9;55
30343;BME280;17145;49.902;8.680;'2023-01-05 11:04:33';100630;;;9;56
30343;BME280;17145;49.902;8.680;'2023-01-05 11:07:04';100620;;;10;55
30343;BME280;17145;49.902;8.680;'2023-01-05 11:09:36';100630;;;10;55
30343;BME280;17145;49.902;8.680;'2023-01-05 11:12:13';100630;;;10;55
30343;BME280;17145;49.902;8.680;'2023-01-05 11:14:45';100630;;;10;54
30343;BME280;17145;49.902;8.680;'2023-01-05 11:17:16';100630;;;10;54
30343;BME280;17145;49.902;8.680;'2023-01-05 11:19:45';100630;;;10;54
30343;BME280;17145;49.902;8.680;'2023-01-05 11:22:26';100630;;;10;54
30343;BME280;17145;49.902;8.680;'2023-01-05 11:24:59';100640;;;10;54
30343;BME280;17145;49.902;8.680;'2023-01-05 11:27:32';100640;;;10;54
30343;BME280;17145;49.902;8.680;'2023-01-05 11:30:10';100640;;;10;54
30343;BME280;17145;49.902;8.680;'2023-01-05 11:32:48';100640;;;10;54
30343;BME280;17145;49.902;8.680;'2023-01-05 11:35:28';100640;;;10;54
30343;BME280;17145;49.902;8.680;'2023-01-05 11:38:05';100650;;;10;55
30343;BME280;17145;49.902;8.680;'2023-01-05 11:40:44';100660;;;10;55
30343;BME280;17145;49.902;8.680;'2023-01-05 11:43:27';100650;;;10;55
30343;BME280;17145;49.902;8.680;'2023-01-05 11:45:55';100650;;;9;55
30343;BME280;17145;49.902;8.680;'2023-01-05 11:48:27';100650;;;9;55
30343;BME280;17145;49.902;8.680;'2023-01-05 11:50:56';100650;;;9;56
30343;BME280;17145;49.902;8.680;'2023-01-05 11:53:26';100650;;;9;56
30343;BME280;17145;49.902;8.680;'2023-01-05 11:56:00';100650;;;9;56
30343;BME280;17145;49.902;8.680;'2023-01-05 11:58:29';100650;;;10;55
30343;BME280;17145;49.902;8.680;'2023-01-05 12:01:00';100640;;;10;55
30343;BME280;17145;49.902;8.680;'2023-01-05 12:03:34';100640;;;10;54
30343;BME280;17145;49.902;8.680;'2023-01-05 12:06:02';100650;;;10;54
30343;BME280;17145;49.902;8.680;'2023-01-05 12:08:31';100640;;;9;54
30343;BME280;17145;49.902;8.680;'2023-01-05 12:11:00';100640;;;10;54
30343;BME280;17145;49.902;8.680;'2023-01-05 12:13:31';100640;;;10;53
30343;BME280;17145;49.902;8.680;'2023-01-05 12:16:05';100640;;;10;53
30343;BME280;17145;49.902;8.680;'2023-01-05 12:18:37';100640;;;10;53
30343;BME280;17145;49.902;8.680;'2023-01-05 12:21:08';100640;;;10;53
30343;BME280;17145;49.902;8.680;'2023-01-05 12:23:38';100640;;;10;52
30343;BME280;17145;49.902;8.680;'2023-01-05 12:26:21';100660;;;10;52
30343;BME280;17145;49.902;8.680;'2023-01-05 12:29:01';100650;;;10;52
30343;BME280;17145;49.902;8.680;'2023-01-05 12:31:34';100660;;;9;52
30343;BME280;17145;49.902;8.680;'2023-01-05 12:34:07';100660;;;9;53
30343;BME280;17145;49.902;8.680;'2023-01-05 12:36:36';100660;;;9;53
30343;BME280;17145;49.902;8.680;'2023-01-05 12:39:04';100650;;;10;52
30343;BME280;17145;49.902;8.680;'2023-01-05 12:41:32';100650;;;10;52
30343;BME280;17145;49.902;8.680;'2023-01-05 12:44:00';100660;;;10;52
30343;BME280;17145;49.902;8.680;'2023-01-05 12:46:40';100660;;;10;52
30343;BME280;17145;49.902;8.680;'2023-01-05 12:49:08';100660;;;10;53
30343;BME280;17145;49.902;8.680;'2023-01-05 12:54:18';100650;;;10;52
30343;BME280;17145;49.902;8.680;'2023-01-05 12:59:23';100660;;;10;51
30343;BME280;17145;49.902;8.680;'2023-01-05 13:02:04';100650;;;10;52
30343;BME280;17145;49.902;8.680;'2023-01-05 13:04:51';100650;;;10;52
30343;BME280;17145;49.902;8.680;'2023-01-05 13:07:29';100650;;;10;51
30343;BME280;17145;49.902;8.680;'2023-01-05 13:10:04';100650;;;11;51
30343;BME280;17145;49.902;8.680;'2023-01-05 13:12:44';100640;;;11;50
30343;BME280;17145;49.902;8.680;'2023-01-05 13:15:28';100650;;;11;50
30343;BME280;17145;49.902;8.680;'2023-01-05 13:18:06';100640;;;11;49
30343;BME280;17145;49.902;8.680;'2023-01-05 13:20:48';100660;;;11;49
30343;BME280;17145;49.902;8.680;'2023-01-05 13:23:34';100650;;;10;49
30343;BME280;17145;49.902;8.680;'2023-01-05 13:26:15';100650;;;11;49
30343;BME280;17145;49.902;8.680;'2023-01-05 13:29:05';100650;;;10;50
30343;BME280;17145;49.902;8.680;'2023-01-05 13:31:46';100650;;;10;51
30343;BME280;17145;49.902;8.680;'2023-01-05 13:34:27';100650;;;10;50
30343;BME280;17145;49.902;8.680;'2023-01-05 13:37:15';100650;;;10;50
30343;BME280;17145;49.902;8.680;'2023-01-05 13:39:57';100660;;;10;51
30343;BME280;17145;49.902;8.680;'2023-01-05 13:42:41';100660;;;10;51
30343;BME280;17145;49.902;8.680;'2023-01-05 13:45:29';100660;;;11;50
30343;BME280;17145;49.902;8.680;'2023-01-05 13:48:03';100660;;;11;50
30343;BME280;17145;49.902;8.680;'2023-01-05 13:50:37';100660;;;11;50
30343;BME280;17145;49.902;8.680;'2023-01-05 13:53:16';100660;;;11;50
30343;BME280;17145;49.902;8.680;'2023-01-05 13:55:48';100650;;;11;49
30343;BME280;17145;49.902;8.680;'2023-01-05 13:58:23';100660;;;11;49
30343;BME280;17145;49.902;8.680;'2023-01-05 14:00:53';100660;;;11;49
30343;BME280;17145;49.902;8.680;'2023-01-05 14:03:26';100670;;;11;50
30343;BME280;17145;49.902;8.680;'2023-01-05 14:06:01';100660;;;11;50
30343;BME280;17145;49.902;8.680;'2023-01-05 14:08:36';100660;;;12;49
30343;BME280;17145;49.902;8.680;'2023-01-05 14:11:10';100670;;;12;49
30343;BME280;17145;49.902;8.680;'2023-01-05 14:13:42';100660;;;11;49
30343;BME280;17145;49.902;8.680;'2023-01-05 14:16:16';100660;;;11;49
30343;BME280;17145;49.902;8.680;'2023-01-05 14:18:49';100660;;;12;48
30343;BME280;17145;49.902;8.680;'2023-01-05 14:21:20';100660;;;11;49
30343;BME280;17145;49.902;8.680;'2023-01-05 14:23:52';100670;;;12;49
30343;BME280;17145;49.902;8.680;'2023-01-05 14:26:21';100660;;;10;50
30343;BME280;17145;49.902;8.680;'2023-01-05 14:28:52';100650;;;11;49
30343;BME280;17145;49.902;8.680;'2023-01-05 14:31:37';100660;;;12;49
30343;BME280;17145;49.902;8.680;'2023-01-05 14:34:16';100660;;;11;50
30343;BME280;17145;49.902;8.680;'2023-01-05 14:37:01';100660;;;12;49
30343;BME280;17145;49.902;8.680;'2023-01-05 14:39:44';100670;;;11;50
30343;BME280;17145;49.902;8.680;'2023-01-05 14:45:07';100670;;;11;50
30343;BME280;17145;49.902;8.680;'2023-01-05 14:47:51';100680;;;11;50
30343;BME280;17145;49.902;8.680;'2023-01-05 14:50:35';100670;;;10;51
30343;BME280;17145;49.902;8.680;'2023-01-05 14:53:10';100680;;;10;52
30343;BME280;17145;49.902;8.680;'2023-01-05 14:55:45';100670;;;10;53
30343;BME280;17145;49.902;8.680;'2023-01-05 14:58:31';100670;;;10;52
30343;BME280;17145;49.902;8.680;'2023-01-05 15:01:01';100680;;;10;52
30343;BME280;17145;49.902;8.680;'2023-01-05 15:03:32';100670;;;10;53
30343;BME280;17145;49.902;8.680;'2023-01-05 15:06:05';100670;;;10;53
30343;BME280;17145;49.902;8.680;'2023-01-05 15:08:35';100680;;;11;51
30343;BME280;17145;49.902;8.680;'2023-01-05 15:11:10';100670;;;11;51
30343;BME280;17145;49.902;8.680;'2023-01-05 15:16:37';100680;;;10;52
30343;BME280;17145;49.902;8.680;'2023-01-05 15:21:58';100700;;;10;52
30343;BME280;17145;49.902;8.680;'2023-01-05 15:24:28';100680;;;10;52
30343;BME280;17145;49.902;8.680;'2023-01-05 15:29:58';100680;;;11;52
30343;BME280;17145;49.902;8.680;'2023-01-05 15:32:27';100700;;;10;52
30343;BME280;17145;49.902;8.680;'2023-01-05 15:35:01';100700;;;10;52
30343;BME280;17145;49.902;8.680;'2023-01-05 15:37:35';100700;;;9;54
30343;BME280;17145;49.902;8.680;'2023-01-05 15:40:14';100710;;;10;54
30343;BME280;17145;49.902;8.680;'2023-01-05 15:42:48';100710;;;9;54
30343;BME280;17145;49.902;8.680;'2023-01-05 15:45:21';100720;;;9;53
30343;BME280;17145;49.902;8.680;'2023-01-05 15:47:53';100720;;;10;53
30343;BME280;17145;49.902;8.680;'2023-01-05 15:50:28';100720;;;10;53
30343;BME280;17145;49.902;8.680;'2023-01-05 15:52:58';100720;;;10;52
30343;BME280;17145;49.902;8.680;'2023-01-05 15:55:29';100720;;;10;52